Forest Falls, California
Current Conditions -  °F | °C
As of 12:55 PM on Friday 19 Dec 2014 (Local Time) from KL35 Reporting Station
Clear Clear  
Wind Chill: 40°   Ceiling: Unl
Heat Index: 45°   Visibility: 10mi
Dew Point: 19°   Wind: 9mph
Humidity: 37%   Direction: 260°W
Pressure: 30.2"   Gusts: 16mph
Location:  34.09°N, 116.92°W
Report Text: KL35 192055Z AUTO 26008G14KT 10SM CLR 07/M07 A3020 RMK AO2
Loading
Personal Weather Stations






























Interactive Weather Map New forecast layout! Learn more

10-Day Weather Forecast

Advertisements
Track Severe Weather on mobile